sensor_id;sensor_type;location;lat;lon;timestamp;pressure;altitude;pressure_sealevel;temperature;humidity
75551;BME280;65071;53.082;18.218;2023-03-01T00:01:12;102765.67;;;-3.04;70.75
75551;BME280;65071;53.082;18.218;2023-03-01T00:03:40;102764.95;;;-3.02;70.85
75551;BME280;65071;53.082;18.218;2023-03-01T00:06:06;102761.23;;;-3.01;70.96
75551;BME280;65071;53.082;18.218;2023-03-01T00:08:33;102758.41;;;-3.00;70.49
75551;BME280;65071;53.082;18.218;2023-03-01T00:13:35;102765.91;;;-2.96;70.26
75551;BME280;65071;53.082;18.218;2023-03-01T00:16:06;102767.27;;;-2.92;70.56
75551;BME280;65071;53.082;18.218;2023-03-01T00:18:33;102766.88;;;-2.88;70.17
75551;BME280;65071;53.082;18.218;2023-03-01T00:21:00;102764.73;;;-2.84;70.35
75551;BME280;65071;53.082;18.218;2023-03-01T00:23:27;102759.95;;;-2.83;70.68
75551;BME280;65071;53.082;18.218;2023-03-01T00:25:54;102749.39;;;-2.83;70.79
75551;BME280;65071;53.082;18.218;2023-03-01T00:28:21;102737.61;;;-2.84;71.21
75551;BME280;65071;53.082;18.218;2023-03-01T00:30:47;102732.52;;;-2.85;71.00
75551;BME280;65071;53.082;18.218;2023-03-01T00:33:14;102728.67;;;-2.87;71.19
75551;BME280;65071;53.082;18.218;2023-03-01T00:35:41;102726.60;;;-2.91;71.11
75551;BME280;65071;53.082;18.218;2023-03-01T00:38:08;102724.89;;;-2.94;71.42
75551;BME280;65071;53.082;18.218;2023-03-01T00:40:35;102729.00;;;-2.99;72.30
75551;BME280;65071;53.082;18.218;2023-03-01T00:43:02;102730.98;;;-3.03;71.50
75551;BME280;65071;53.082;18.218;2023-03-01T00:45:29;102731.37;;;-3.06;71.58
75551;BME280;65071;53.082;18.218;2023-03-01T00:47:58;102731.93;;;-3.08;71.62
75551;BME280;65071;53.082;18.218;2023-03-01T00:50:25;102725.25;;;-3.09;71.89
75551;BME280;65071;53.082;18.218;2023-03-01T00:52:53;102725.20;;;-3.06;71.15
75551;BME280;65071;53.082;18.218;2023-03-01T00:55:21;102724.27;;;-3.02;70.77
75551;BME280;65071;53.082;18.218;2023-03-01T00:57:47;102724.05;;;-2.98;70.65
75551;BME280;65071;53.082;18.218;2023-03-01T01:00:15;102719.23;;;-2.93;70.82
75551;BME280;65071;53.082;18.218;2023-03-01T01:02:41;102711.61;;;-2.89;70.85
75551;BME280;65071;53.082;18.218;2023-03-01T01:05:08;102710.71;;;-2.87;70.84
75551;BME280;65071;53.082;18.218;2023-03-01T01:07:35;102708.25;;;-2.87;71.59
75551;BME280;65071;53.082;18.218;2023-03-01T01:10:02;102707.94;;;-2.89;72.36
75551;BME280;65071;53.082;18.218;2023-03-01T01:12:29;102707.96;;;-2.93;72.05
75551;BME280;65071;53.082;18.218;2023-03-01T01:14:56;102702.55;;;-2.96;71.76
75551;BME280;65071;53.082;18.218;2023-03-01T01:17:23;102699.25;;;-2.99;71.92
75551;BME280;65071;53.082;18.218;2023-03-01T01:19:50;102691.54;;;-3.01;72.10
75551;BME280;65071;53.082;18.218;2023-03-01T01:22:16;102689.98;;;-3.04;71.83
75551;BME280;65071;53.082;18.218;2023-03-01T01:24:43;102684.73;;;-3.06;71.85
75551;BME280;65071;53.082;18.218;2023-03-01T01:27:10;102679.13;;;-3.08;71.78
75551;BME280;65071;53.082;18.218;2023-03-01T01:29:36;102676.86;;;-3.10;72.04
75551;BME280;65071;53.082;18.218;2023-03-01T01:32:04;102673.52;;;-3.10;72.16
75551;BME280;65071;53.082;18.218;2023-03-01T01:34:31;102669.14;;;-3.11;72.55
75551;BME280;65071;53.082;18.218;2023-03-01T01:36:57;102666.65;;;-3.09;72.11
75551;BME280;65071;53.082;18.218;2023-03-01T01:39:28;102665.36;;;-3.05;71.45
75551;BME280;65071;53.082;18.218;2023-03-01T01:41:55;102661.29;;;-3.03;72.27
75551;BME280;65071;53.082;18.218;2023-03-01T01:44:27;102662.66;;;-3.01;71.98
75551;BME280;65071;53.082;18.218;2023-03-01T01:46:58;102655.08;;;-2.99;71.81
75551;BME280;65071;53.082;18.218;2023-03-01T01:49:38;102648.00;;;-2.97;71.58
75551;BME280;65071;53.082;18.218;2023-03-01T01:52:22;102653.25;;;-2.94;71.82
75551;BME280;65071;53.082;18.218;2023-03-01T01:57:31;102653.92;;;-2.93;72.36
75551;BME280;65071;53.082;18.218;2023-03-01T02:00:07;102646.20;;;-2.94;72.22
75551;BME280;65071;53.082;18.218;2023-03-01T02:02:46;102642.66;;;-2.93;72.37
75551;BME280;65071;53.082;18.218;2023-03-01T02:05:50;102640.02;;;-2.93;72.43
75551;BME280;65071;53.082;18.218;2023-03-01T02:08:20;102645.13;;;-2.93;72.44
75551;BME280;65071;53.082;18.218;2023-03-01T02:10:49;102646.39;;;-2.95;72.23
75551;BME280;65071;53.082;18.218;2023-03-01T02:13:17;102644.82;;;-2.96;73.08
75551;BME280;65071;53.082;18.218;2023-03-01T02:15:44;102648.73;;;-3.00;73.30
75551;BME280;65071;53.082;18.218;2023-03-01T02:18:14;102649.60;;;-2.98;72.36
75551;BME280;65071;53.082;18.218;2023-03-01T02:23:13;102651.40;;;-2.88;71.83
75551;BME280;65071;53.082;18.218;2023-03-01T02:26:33;102649.42;;;-2.85;71.95
75551;BME280;65071;53.082;18.218;2023-03-01T02:28:59;102643.05;;;-2.83;71.91
75551;BME280;65071;53.082;18.218;2023-03-01T02:31:26;102643.40;;;-2.83;71.89
75551;BME280;65071;53.082;18.218;2023-03-01T02:34:12;102639.89;;;-2.83;72.41
75551;BME280;65071;53.082;18.218;2023-03-01T02:36:46;102639.23;;;-2.86;72.24
75551;BME280;65071;53.082;18.218;2023-03-01T02:39:27;102632.55;;;-2.88;72.49
75551;BME280;65071;53.082;18.218;2023-03-01T02:41:56;102628.72;;;-2.90;72.70
75551;BME280;65071;53.082;18.218;2023-03-01T02:44:23;102628.58;;;-2.93;73.19
75551;BME280;65071;53.082;18.218;2023-03-01T02:46:52;102626.89;;;-2.97;73.36
75551;BME280;65071;53.082;18.218;2023-03-01T02:49:21;102626.74;;;-3.00;72.56
75551;BME280;65071;53.082;18.218;2023-03-01T02:54:44;102616.28;;;-3.06;73.42
75551;BME280;65071;53.082;18.218;2023-03-01T02:57:13;102618.42;;;-3.09;73.39
75551;BME280;65071;53.082;18.218;2023-03-01T02:59:42;102619.20;;;-3.14;73.64
75551;BME280;65071;53.082;18.218;2023-03-01T03:02:23;102619.08;;;-3.17;73.52
75551;BME280;65071;53.082;18.218;2023-03-01T03:05:10;102619.80;;;-3.20;73.63
75551;BME280;65071;53.082;18.218;2023-03-01T03:07:40;102619.68;;;-3.23;73.10
75551;BME280;65071;53.082;18.218;2023-03-01T03:10:14;102620.56;;;-3.24;72.84
75551;BME280;65071;53.082;18.218;2023-03-01T03:12:41;102622.34;;;-3.24;73.39
75551;BME280;65071;53.082;18.218;2023-03-01T03:15:10;102622.50;;;-3.24;72.98
75551;BME280;65071;53.082;18.218;2023-03-01T03:17:40;102628.45;;;-3.21;73.06
75551;BME280;65071;53.082;18.218;2023-03-01T03:20:11;102622.24;;;-3.18;72.68
75551;BME280;65071;53.082;18.218;2023-03-01T03:22:39;102610.44;;;-3.17;72.90
75551;BME280;65071;53.082;18.218;2023-03-01T03:25:07;102604.45;;;-3.16;72.86
75551;BME280;65071;53.082;18.218;2023-03-01T03:27:39;102600.19;;;-3.13;73.03
75551;BME280;65071;53.082;18.218;2023-03-01T03:30:08;102602.98;;;-3.12;73.15
75551;BME280;65071;53.082;18.218;2023-03-01T03:32:36;102605.10;;;-3.12;73.12
75551;BME280;65071;53.082;18.218;2023-03-01T03:35:07;102599.98;;;-3.12;73.25
75551;BME280;65071;53.082;18.218;2023-03-01T03:37:39;102597.70;;;-3.11;72.97
75551;BME280;65071;53.082;18.218;2023-03-01T03:40:25;102586.77;;;-3.11;73.05
75551;BME280;65071;53.082;18.218;2023-03-01T03:42:51;102577.98;;;-3.11;73.45
75551;BME280;65071;53.082;18.218;2023-03-01T03:45:18;102576.61;;;-3.13;73.77
75551;BME280;65071;53.082;18.218;2023-03-01T03:47:45;102574.35;;;-3.15;73.68
75551;BME280;65071;53.082;18.218;2023-03-01T03:50:14;102572.27;;;-3.17;73.82
75551;BME280;65071;53.082;18.218;2023-03-01T03:52:41;102573.12;;;-3.16;73.46
75551;BME280;65071;53.082;18.218;2023-03-01T03:55:09;102575.55;;;-3.12;73.20
75551;BME280;65071;53.082;18.218;2023-03-01T03:57:38;102582.18;;;-3.09;73.31
75551;BME280;65071;53.082;18.218;2023-03-01T04:00:06;102585.64;;;-3.04;73.18
75551;BME280;65071;53.082;18.218;2023-03-01T04:02:40;102583.27;;;-3.00;72.95
75551;BME280;65071;53.082;18.218;2023-03-01T04:05:08;102581.48;;;-2.98;73.03
75551;BME280;65071;53.082;18.218;2023-03-01T04:07:36;102584.96;;;-2.95;73.31
75551;BME280;65071;53.082;18.218;2023-03-01T04:10:04;102592.86;;;-2.94;73.35
75551;BME280;65071;53.082;18.218;2023-03-01T04:12:33;102593.21;;;-2.94;73.60
75551;BME280;65071;53.082;18.218;2023-03-01T04:15:06;102594.59;;;-2.92;73.28
75551;BME280;65071;53.082;18.218;2023-03-01T04:17:43;102594.39;;;-2.90;73.31
75551;BME280;65071;53.082;18.218;2023-03-01T04:20:13;102592.98;;;-2.89;73.18
75551;BME280;65071;53.082;18.218;2023-03-01T04:22:44;102597.37;;;-2.88;73.25
75551;BME280;65071;53.082;18.218;2023-03-01T04:25:13;102598.59;;;-2.87;73.23
75551;BME280;65071;53.082;18.218;2023-03-01T04:27:40;102599.11;;;-2.87;73.47
75551;BME280;65071;53.082;18.218;2023-03-01T04:30:08;102602.27;;;-2.88;73.53
75551;BME280;65071;53.082;18.218;2023-03-01T04:32:35;102596.14;;;-2.89;73.35
75551;BME280;65071;53.082;18.218;2023-03-01T04:35:02;102585.41;;;-2.89;73.50
75551;BME280;65071;53.082;18.218;2023-03-01T04:37:28;102582.05;;;-2.88;73.48
75551;BME280;65071;53.082;18.218;2023-03-01T04:39:56;102579.66;;;-2.82;73.31
75551;BME280;65071;53.082;18.218;2023-03-01T04:42:22;102573.56;;;-2.75;73.18
75551;BME280;65071;53.082;18.218;2023-03-01T04:44:49;102572.77;;;-2.70;73.40
75551;BME280;65071;53.082;18.218;2023-03-01T04:47:17;102571.29;;;-2.66;73.14
75551;BME280;65071;53.082;18.218;2023-03-01T04:49:44;102569.52;;;-2.65;73.16
75551;BME280;65071;53.082;18.218;2023-03-01T04:52:10;102569.30;;;-2.63;73.39
75551;BME280;65071;53.082;18.218;2023-03-01T04:54:37;102564.35;;;-2.61;73.51
75551;BME280;65071;53.082;18.218;2023-03-01T04:57:04;102558.00;;;-2.60;73.37
75551;BME280;65071;53.082;18.218;2023-03-01T04:59:30;102555.73;;;-2.62;73.84
75551;BME280;65071;53.082;18.218;2023-03-01T05:01:57;102552.05;;;-2.64;73.58
75551;BME280;65071;53.082;18.218;2023-03-01T05:04:24;102546.98;;;-2.65;73.62
75551;BME280;65071;53.082;18.218;2023-03-01T05:06:51;102551.74;;;-2.65;73.93
75551;BME280;65071;53.082;18.218;2023-03-01T05:09:17;102553.89;;;-2.66;73.61
75551;BME280;65071;53.082;18.218;2023-03-01T05:11:44;102557.44;;;-2.69;74.03
75551;BME280;65071;53.082;18.218;2023-03-01T05:14:11;102564.19;;;-2.72;74.25
75551;BME280;65071;53.082;18.218;2023-03-01T05:16:37;102566.35;;;-2.75;74.16
75551;BME280;65071;53.082;18.218;2023-03-01T05:19:04;102568.50;;;-2.77;73.87
75551;BME280;65071;53.082;18.218;2023-03-01T05:21:38;102569.73;;;-2.78;74.18
75551;BME280;65071;53.082;18.218;2023-03-01T05:24:23;102564.76;;;-2.75;73.60
75551;BME280;65071;53.082;18.218;2023-03-01T05:26:50;102564.34;;;-2.71;73.14
75551;BME280;65071;53.082;18.218;2023-03-01T05:29:24;102562.55;;;-2.68;73.23
75551;BME280;65071;53.082;18.218;2023-03-01T05:31:56;102564.29;;;-2.68;73.38
75551;BME280;65071;53.082;18.218;2023-03-01T05:34:24;102561.09;;;-2.66;73.44
75551;BME280;65071;53.082;18.218;2023-03-01T05:36:52;102561.08;;;-2.66;73.42
75551;BME280;65071;53.082;18.218;2023-03-01T05:39:20;102558.80;;;-2.66;73.46
75551;BME280;65071;53.082;18.218;2023-03-01T05:41:52;102563.18;;;-2.65;73.62
75551;BME280;65071;53.082;18.218;2023-03-01T05:44:19;102560.55;;;-2.66;73.70
75551;BME280;65071;53.082;18.218;2023-03-01T05:46:46;102561.27;;;-2.66;73.95
75551;BME280;65071;53.082;18.218;2023-03-01T05:49:13;102560.56;;;-2.66;74.49
75551;BME280;65071;53.082;18.218;2023-03-01T05:51:41;102559.71;;;-2.68;74.45
75551;BME280;65071;53.082;18.218;2023-03-01T05:54:09;102560.84;;;-2.62;74.01
75551;BME280;65071;53.082;18.218;2023-03-01T05:56:36;102555.81;;;-2.56;73.76
75551;BME280;65071;53.082;18.218;2023-03-01T05:59:04;102555.52;;;-2.50;73.76
75551;BME280;65071;53.082;18.218;2023-03-01T06:01:35;102562.69;;;-2.46;74.25
75551;BME280;65071;53.082;18.218;2023-03-01T06:04:02;102562.82;;;-2.44;74.00
75551;BME280;65071;53.082;18.218;2023-03-01T06:06:29;102562.42;;;-2.41;74.34
75551;BME280;65071;53.082;18.218;2023-03-01T06:08:56;102568.35;;;-2.38;74.42
75551;BME280;65071;53.082;18.218;2023-03-01T06:11:22;102563.36;;;-2.36;74.04
75551;BME280;65071;53.082;18.218;2023-03-01T06:13:49;102568.91;;;-2.29;74.02
75551;BME280;65071;53.082;18.218;2023-03-01T06:16:16;102570.54;;;-2.23;73.83
75551;BME280;65071;53.082;18.218;2023-03-01T06:18:42;102570.21;;;-2.14;74.29
75551;BME280;65071;53.082;18.218;2023-03-01T06:21:09;102567.23;;;-2.06;73.74
75551;BME280;65071;53.082;18.218;2023-03-01T06:23:36;102564.27;;;-1.99;73.59
75551;BME280;65071;53.082;18.218;2023-03-01T06:26:07;102567.48;;;-1.92;73.63
75551;BME280;65071;53.082;18.218;2023-03-01T06:28:34;102570.00;;;-1.85;73.61
75551;BME280;65071;53.082;18.218;2023-03-01T06:31:01;102573.45;;;-1.73;73.53
75551;BME280;65071;53.082;18.218;2023-03-01T06:33:28;102572.52;;;-1.61;73.42
75551;BME280;65071;53.082;18.218;2023-03-01T06:35:55;102572.23;;;-1.48;73.26
75551;BME280;65071;53.082;18.218;2023-03-01T06:38:23;102579.40;;;-1.36;72.91
75551;BME280;65071;53.082;18.218;2023-03-01T06:40:54;102584.08;;;-1.24;72.83
75551;BME280;65071;53.082;18.218;2023-03-01T06:43:21;102585.17;;;-1.11;73.10
75551;BME280;65071;53.082;18.218;2023-03-01T06:45:48;102584.02;;;-0.99;72.75
75551;BME280;65071;53.082;18.218;2023-03-01T06:48:14;102584.27;;;-0.87;72.83
75551;BME280;65071;53.082;18.218;2023-03-01T06:50:41;102582.39;;;-0.75;72.70
75551;BME280;65071;53.082;18.218;2023-03-01T06:53:08;102582.66;;;-0.64;72.45
75551;BME280;65071;53.082;18.218;2023-03-01T06:55:35;102581.39;;;-0.55;72.56
75551;BME280;65071;53.082;18.218;2023-03-01T06:58:02;102579.45;;;-0.49;72.28
75551;BME280;65071;53.082;18.218;2023-03-01T07:00:29;102572.54;;;-0.41;72.11
75551;BME280;65071;53.082;18.218;2023-03-01T07:03:00;102566.33;;;-0.34;72.07
75551;BME280;65071;53.082;18.218;2023-03-01T07:05:29;102562.80;;;-0.27;71.92
75551;BME280;65071;53.082;18.218;2023-03-01T07:07:56;102569.58;;;-0.16;72.16
75551;BME280;65071;53.082;18.218;2023-03-01T07:10:24;102563.36;;;-0.09;71.82
75551;BME280;65071;53.082;18.218;2023-03-01T07:12:54;102559.41;;;0.00;72.04
75551;BME280;65071;53.082;18.218;2023-03-01T07:15:21;102558.08;;;0.10;71.76
75551;BME280;65071;53.082;18.218;2023-03-01T07:17:47;102557.31;;;0.18;71.62
75551;BME280;65071;53.082;18.218;2023-03-01T07:20:20;102555.64;;;0.28;71.41
75551;BME280;65071;53.082;18.218;2023-03-01T07:22:52;102546.67;;;0.37;71.21
75551;BME280;65071;53.082;18.218;2023-03-01T07:25:19;102543.36;;;0.47;71.04
75551;BME280;65071;53.082;18.218;2023-03-01T07:27:50;102540.55;;;0.59;70.79
75551;BME280;65071;53.082;18.218;2023-03-01T07:30:17;102538.06;;;0.77;70.57
75551;BME280;65071;53.082;18.218;2023-03-01T07:32:44;102538.08;;;0.92;70.81
75551;BME280;65071;53.082;18.218;2023-03-01T07:35:11;102536.23;;;1.06;70.07
75551;BME280;65071;53.082;18.218;2023-03-01T07:37:38;102533.37;;;1.17;70.51
75551;BME280;65071;53.082;18.218;2023-03-01T07:40:05;102537.96;;;1.28;70.44
75551;BME280;65071;53.082;18.218;2023-03-01T07:42:33;102536.14;;;1.41;70.09
75551;BME280;65071;53.082;18.218;2023-03-01T07:44:59;102533.55;;;1.55;69.74
75551;BME280;65071;53.082;18.218;2023-03-01T07:47:26;102531.13;;;1.68;69.73
75551;BME280;65071;53.082;18.218;2023-03-01T07:49:53;102532.27;;;1.81;69.44
75551;BME280;65071;53.082;18.218;2023-03-01T07:52:19;102534.44;;;1.94;69.65
75551;BME280;65071;53.082;18.218;2023-03-01T07:54:46;102535.89;;;2.08;68.27
75551;BME280;65071;53.082;18.218;2023-03-01T07:57:13;102528.23;;;2.19;68.05
75551;BME280;65071;53.082;18.218;2023-03-01T07:59:39;102524.45;;;2.34;67.74
75551;BME280;65071;53.082;18.218;2023-03-01T08:02:08;102524.32;;;2.47;68.10
75551;BME280;65071;53.082;18.218;2023-03-01T08:04:34;102520.83;;;2.63;67.88
75551;BME280;65071;53.082;18.218;2023-03-01T08:07:04;102513.63;;;2.79;67.38
75551;BME280;65071;53.082;18.218;2023-03-01T08:09:31;102512.34;;;2.94;67.56
75551;BME280;65071;53.082;18.218;2023-03-01T08:11:57;102510.54;;;3.08;66.94
75551;BME280;65071;53.082;18.218;2023-03-01T08:14:27;102514.02;;;3.18;66.39
75551;BME280;65071;53.082;18.218;2023-03-01T08:16:54;102514.29;;;3.28;67.11
75551;BME280;65071;53.082;18.218;2023-03-01T08:19:21;102519.37;;;3.39;67.35
75551;BME280;65071;53.082;18.218;2023-03-01T08:21:48;102519.91;;;3.47;66.23
75551;BME280;65071;53.082;18.218;2023-03-01T08:24:14;102517.36;;;3.52;66.51
75551;BME280;65071;53.082;18.218;2023-03-01T08:26:41;102523.45;;;3.55;65.78
75551;BME280;65071;53.082;18.218;2023-03-01T08:29:08;102524.18;;;3.59;66.89
75551;BME280;65071;53.082;18.218;2023-03-01T08:31:37;102528.07;;;3.63;66.77
75551;BME280;65071;53.082;18.218;2023-03-01T08:34:07;102530.47;;;3.70;66.16
75551;BME280;65071;53.082;18.218;2023-03-01T08:36:42;102525.89;;;3.73;66.38
75551;BME280;65071;53.082;18.218;2023-03-01T08:39:11;102525.09;;;3.79;66.05
75551;BME280;65071;53.082;18.218;2023-03-01T08:41:38;102522.10;;;3.83;65.99
75551;BME280;65071;53.082;18.218;2023-03-01T08:44:05;102526.38;;;3.90;65.30
75551;BME280;65071;53.082;18.218;2023-03-01T08:46:35;102521.44;;;4.01;65.71
75551;BME280;65071;53.082;18.218;2023-03-01T08:49:28;102514.42;;;4.07;64.79
75551;BME280;65071;53.082;18.218;2023-03-01T08:51:55;102512.98;;;4.18;64.58
75551;BME280;65071;53.082;18.218;2023-03-01T08:54:22;102515.84;;;4.22;64.45
75551;BME280;65071;53.082;18.218;2023-03-01T08:56:49;102512.17;;;4.24;64.07
75551;BME280;65071;53.082;18.218;2023-03-01T08:59:16;102511.17;;;4.34;64.65
75551;BME280;65071;53.082;18.218;2023-03-01T09:01:44;102509.89;;;4.47;64.37
75551;BME280;65071;53.082;18.218;2023-03-01T09:04:12;102511.68;;;4.62;64.49
75551;BME280;65071;53.082;18.218;2023-03-01T09:06:38;102514.70;;;4.70;63.84
75551;BME280;65071;53.082;18.218;2023-03-01T09:09:06;102519.62;;;4.78;64.57
75551;BME280;65071;53.082;18.218;2023-03-01T09:11:37;102519.62;;;4.86;63.60
75551;BME280;65071;53.082;18.218;2023-03-01T09:14:05;102517.27;;;4.90;63.73
75551;BME280;65071;53.082;18.218;2023-03-01T09:16:32;102522.95;;;4.94;63.01
75551;BME280;65071;53.082;18.218;2023-03-01T09:19:03;102527.51;;;5.03;63.64
75551;BME280;65071;53.082;18.218;2023-03-01T09:21:29;102521.15;;;5.12;63.34
75551;BME280;65071;53.082;18.218;2023-03-01T09:23:57;102514.46;;;5.22;63.09
75551;BME280;65071;53.082;18.218;2023-03-01T09:26:24;102518.00;;;5.30;63.24
75551;BME280;65071;53.082;18.218;2023-03-01T09:28:53;102521.33;;;5.41;63.30
75551;BME280;65071;53.082;18.218;2023-03-01T09:31:22;102522.30;;;5.50;63.41
75551;BME280;65071;53.082;18.218;2023-03-01T09:33:52;102515.77;;;5.62;64.13
75551;BME280;65071;53.082;18.218;2023-03-01T09:36:20;102512.66;;;5.71;63.90
75551;BME280;65071;53.082;18.218;2023-03-01T09:38:48;102509.92;;;5.75;63.07
75551;BME280;65071;53.082;18.218;2023-03-01T09:46:45;102502.11;;;5.86;62.79
75551;BME280;65071;53.082;18.218;2023-03-01T09:49:19;102500.29;;;5.90;63.08
75551;BME280;65071;53.082;18.218;2023-03-01T09:52:06;102495.91;;;5.95;63.14
75551;BME280;65071;53.082;18.218;2023-03-01T09:54:38;102496.13;;;6.00;63.37
75551;BME280;65071;53.082;18.218;2023-03-01T09:57:20;102495.60;;;6.07;63.61
75551;BME280;65071;53.082;18.218;2023-03-01T10:00:12;102496.88;;;6.13;63.73
75551;BME280;65071;53.082;18.218;2023-03-01T10:02:44;102497.96;;;6.16;63.78
75551;BME280;65071;53.082;18.218;2023-03-01T10:05:41;102491.89;;;6.19;63.82
75551;BME280;65071;53.082;18.218;2023-03-01T10:10:38;102485.45;;;6.32;63.90
75551;BME280;65071;53.082;18.218;2023-03-01T10:13:20;102483.50;;;6.38;63.89
75551;BME280;65071;53.082;18.218;2023-03-01T10:16:16;102483.09;;;6.46;63.92
75551;BME280;65071;53.082;18.218;2023-03-01T10:18:46;102477.55;;;6.56;63.46
75551;BME280;65071;53.082;18.218;2023-03-01T10:21:18;102466.17;;;6.61;63.06
75551;BME280;65071;53.082;18.218;2023-03-01T10:23:50;102463.39;;;6.69;63.51
75551;BME280;65071;53.082;18.218;2023-03-01T10:26:43;102462.00;;;6.74;62.74
75551;BME280;65071;53.082;18.218;2023-03-01T10:29:13;102455.64;;;6.79;62.88
75551;BME280;65071;53.082;18.218;2023-03-01T10:31:51;102451.77;;;6.84;62.78
75551;BME280;65071;53.082;18.218;2023-03-01T10:34:28;102447.08;;;6.88;62.75
75551;BME280;65071;53.082;18.218;2023-03-01T10:37:17;102439.44;;;6.96;62.58
75551;BME280;65071;53.082;18.218;2023-03-01T10:44:54;102441.80;;;7.11;62.34
75551;BME280;65071;53.082;18.218;2023-03-01T10:47:23;102434.06;;;7.14;61.97
75551;BME280;65071;53.082;18.218;2023-03-01T10:50:21;102430.44;;;7.18;62.47
75551;BME280;65071;53.082;18.218;2023-03-01T10:53:18;102427.71;;;7.25;61.76
75551;BME280;65071;53.082;18.218;2023-03-01T10:55:56;102421.19;;;7.32;61.79
75551;BME280;65071;53.082;18.218;2023-03-01T10:58:24;102415.39;;;7.37;61.76
75551;BME280;65071;53.082;18.218;2023-03-01T11:01:02;102410.79;;;7.38;61.68
75551;BME280;65071;53.082;18.218;2023-03-01T11:03:35;102406.94;;;7.40;61.35
75551;BME280;65071;53.082;18.218;2023-03-01T11:06:21;102401.59;;;7.46;61.83
75551;BME280;65071;53.082;18.218;2023-03-01T11:08:49;102401.39;;;7.49;61.31
75551;BME280;65071;53.082;18.218;2023-03-01T11:13:55;102401.48;;;7.59;61.25
75551;BME280;65071;53.082;18.218;2023-03-01T11:16:40;102401.46;;;7.65;61.71
75551;BME280;65071;53.082;18.218;2023-03-01T11:21:41;102402.19;;;7.79;61.42
75551;BME280;65071;53.082;18.218;2023-03-01T11:24:12;102401.91;;;7.83;61.03
75551;BME280;65071;53.082;18.218;2023-03-01T11:26:42;102395.02;;;7.88;61.03
75551;BME280;65071;53.082;18.218;2023-03-01T11:29:26;102394.79;;;7.92;60.91
75551;BME280;65071;53.082;18.218;2023-03-01T11:31:56;102391.14;;;7.89;60.88
75551;BME280;65071;53.082;18.218;2023-03-01T11:34:38;102390.35;;;7.91;60.36
75551;BME280;65071;53.082;18.218;2023-03-01T11:37:19;102387.84;;;7.93;60.63
75551;BME280;65071;53.082;18.218;2023-03-01T11:39:56;102374.61;;;7.93;60.28
75551;BME280;65071;53.082;18.218;2023-03-01T11:42:33;102371.71;;;7.94;59.86
75551;BME280;65071;53.082;18.218;2023-03-01T11:45:08;102369.27;;;7.95;59.51
75551;BME280;65071;53.082;18.218;2023-03-01T11:54:03;102364.89;;;8.02;59.38
75551;BME280;65071;53.082;18.218;2023-03-01T11:56:18;102369.41;;;8.07;58.53
75551;BME280;65071;53.082;18.218;2023-03-01T12:04:53;102374.67;;;8.15;56.82
75551;BME280;65071;53.082;18.218;2023-03-01T12:10:37;102378.83;;;8.22;56.24
75551;BME280;65071;53.082;18.218;2023-03-01T12:13:35;102375.74;;;8.23;56.32
75551;BME280;65071;53.082;18.218;2023-03-01T12:21:50;102374.27;;;8.30;56.94
75551;BME280;65071;53.082;18.218;2023-03-01T12:24:34;102373.51;;;8.27;56.29
75551;BME280;65071;53.082;18.218;2023-03-01T12:27:26;102374.23;;;8.21;56.55
75551;BME280;65071;53.082;18.218;2023-03-01T12:38:50;102359.86;;;8.36;56.63
75551;BME280;65071;53.082;18.218;2023-03-01T12:41:43;102361.14;;;8.38;57.14
75551;BME280;65071;53.082;18.218;2023-03-01T12:44:28;102356.78;;;8.42;56.78
75551;BME280;65071;53.082;18.218;2023-03-01T12:49:46;102358.50;;;8.46;56.95
75551;BME280;65071;53.082;18.218;2023-03-01T12:52:50;102354.34;;;8.46;56.88
75551;BME280;65071;53.082;18.218;2023-03-01T12:55:35;102352.85;;;8.49;57.15
75551;BME280;65071;53.082;18.218;2023-03-01T13:01:00;102347.33;;;8.49;56.97
75551;BME280;65071;53.082;18.218;2023-03-01T13:03:48;102346.11;;;8.48;56.95
75551;BME280;65071;53.082;18.218;2023-03-01T13:11:35;102341.30;;;8.51;56.83
75551;BME280;65071;53.082;18.218;2023-03-01T13:16:47;102340.89;;;8.49;56.70
75551;BME280;65071;53.082;18.218;2023-03-01T13:19:26;102343.05;;;8.46;57.34
75551;BME280;65071;53.082;18.218;2023-03-01T13:21:59;102342.42;;;8.42;57.33
75551;BME280;65071;53.082;18.218;2023-03-01T13:24:35;102341.72;;;8.42;57.49
75551;BME280;65071;53.082;18.218;2023-03-01T13:32:20;102336.40;;;8.35;57.52
75551;BME280;65071;53.082;18.218;2023-03-01T13:34:49;102336.65;;;8.35;57.66
75551;BME280;65071;53.082;18.218;2023-03-01T13:37:29;102332.03;;;8.36;57.62
75551;BME280;65071;53.082;18.218;2023-03-01T13:39:59;102330.77;;;8.39;57.70
75551;BME280;65071;53.082;18.218;2023-03-01T13:42:34;102334.64;;;8.40;57.85
75551;BME280;65071;53.082;18.218;2023-03-01T13:45:01;102331.77;;;8.40;57.96
75551;BME280;65071;53.082;18.218;2023-03-01T13:47:28;102323.56;;;8.40;58.25
75551;BME280;65071;53.082;18.218;2023-03-01T13:50:01;102319.74;;;8.41;58.27
75551;BME280;65071;53.082;18.218;2023-03-01T13:52:45;102317.07;;;8.43;58.17
75551;BME280;65071;53.082;18.218;2023-03-01T13:57:51;102311.87;;;8.43;58.06
75551;BME280;65071;53.082;18.218;2023-03-01T14:00:37;102310.45;;;8.43;58.00
75551;BME280;65071;53.082;18.218;2023-03-01T14:05:34;102301.45;;;8.43;58.32
75551;BME280;65071;53.082;18.218;2023-03-01T14:08:03;102299.39;;;8.45;58.03
75551;BME280;65071;53.082;18.218;2023-03-01T14:11:13;102301.54;;;8.45;58.31
75551;BME280;65071;53.082;18.218;2023-03-01T14:17:21;102303.02;;;8.42;58.10
75551;BME280;65071;53.082;18.218;2023-03-01T14:19:58;102292.83;;;8.41;57.87
75551;BME280;65071;53.082;18.218;2023-03-01T14:22:31;102290.29;;;8.39;58.08
75551;BME280;65071;53.082;18.218;2023-03-01T14:25:02;102287.16;;;8.37;57.98
75551;BME280;65071;53.082;18.218;2023-03-01T14:27:36;102286.48;;;8.37;58.09
75551;BME280;65071;53.082;18.218;2023-03-01T14:30:20;102286.23;;;8.35;58.35
75551;BME280;65071;53.082;18.218;2023-03-01T14:33:00;102283.80;;;8.34;58.51